EZY59 EGFF-EGFF
Flight info
| Callsign | EZY59 |
|---|---|
| Flight time | 0h 18m |
| Altitude | 3000 |
| Route | BCN DCT EGBB DCT ICTAM |
| Aircraft | A320/M-SDE3FGHIRWY/LB1 |
Departure
| Time | 2026-05-05 18:39 |
|---|---|
| Airport | Cardiff International Airport (EGFF) |
Arrival
| Time | 2026-05-05 18:57 |
|---|---|
| Airport | Cardiff International Airport (EGFF) |
| Time | Latitude | Longitude | Altitude | Speed | Heading |
|---|---|---|---|---|---|
| 2026-05-05 18:20 | 51.40157 | -3.34883 | 229 ft | 0 kts | 297° |
| 2026-05-05 18:32 | 51.40149 | -3.34858 | 229 ft | 4 kts | 296° |
| 2026-05-05 18:32 | 51.40138 | -3.34819 | 231 ft | 4 kts | 294° |
| 2026-05-05 18:33 | 51.40127 | -3.34780 | 231 ft | 4 kts | 292° |
| 2026-05-05 18:33 | 51.40116 | -3.34740 | 231 ft | 4 kts | 291° |
| 2026-05-05 18:33 | 51.40113 | -3.34725 | 230 ft | 2 kts | 290° |
| 2026-05-05 18:35 | 51.40113 | -3.34724 | 230 ft | 0 kts | 290° |
| 2026-05-05 18:36 | 51.40113 | -3.34733 | 230 ft | 1 kts | 270° |
| 2026-05-05 18:36 | 51.40092 | -3.34754 | 229 ft | 9 kts | 202° |
| 2026-05-05 18:36 | 51.40035 | -3.34794 | 229 ft | 9 kts | 206° |
| 2026-05-05 18:36 | 51.40018 | -3.34876 | 229 ft | 9 kts | 291° |
| 2026-05-05 18:37 | 51.40044 | -3.34965 | 229 ft | 9 kts | 297° |
| 2026-05-05 18:37 | 51.40073 | -3.35054 | 230 ft | 9 kts | 296° |
| 2026-05-05 18:37 | 51.40102 | -3.35145 | 230 ft | 9 kts | 297° |
| 2026-05-05 18:37 | 51.40131 | -3.35236 | 230 ft | 9 kts | 297° |
| 2026-05-05 18:38 | 51.40154 | -3.35359 | 228 ft | 14 kts | 272° |
| 2026-05-05 18:38 | 51.40107 | -3.35490 | 226 ft | 15 kts | 217° |
| 2026-05-05 18:38 | 51.40044 | -3.35520 | 220 ft | 8 kts | 159° |
| 2026-05-05 18:38 | 51.40014 | -3.35448 | 220 ft | 8 kts | 116° |
| 2026-05-05 18:39 | 51.39968 | -3.35300 | 220 ft | 41 kts | 116° |
| 2026-05-05 18:39 | 51.39652 | -3.34312 | 243 ft | 151 kts | 115° |
| 2026-05-05 18:39 | 51.39145 | -3.32656 | 1137 ft | 176 kts | 112° |
| 2026-05-05 18:39 | 51.38585 | -3.30798 | 1956 ft | 200 kts | 112° |
| 2026-05-05 18:40 | 51.37973 | -3.28778 | 2008 ft | 195 kts | 112° |
| 2026-05-05 18:40 | 51.37398 | -3.26910 | 2008 ft | 181 kts | 112° |
| 2026-05-05 18:40 | 51.36856 | -3.25134 | 2002 ft | 175 kts | 112° |
| 2026-05-05 18:40 | 51.36315 | -3.23408 | 2010 ft | 173 kts | 118° |
| 2026-05-05 18:41 | 51.35439 | -3.22117 | 2034 ft | 179 kts | 153° |
| 2026-05-05 18:41 | 51.34213 | -3.21832 | 2057 ft | 182 kts | 189° |
| 2026-05-05 18:41 | 51.33077 | -3.22675 | 2072 ft | 182 kts | 222° |
| 2026-05-05 18:41 | 51.32358 | -3.24294 | 2067 ft | 179 kts | 253° |
| 2026-05-05 18:42 | 51.32241 | -3.26215 | 2083 ft | 173 kts | 284° |
| 2026-05-05 18:42 | 51.32618 | -3.28014 | 2088 ft | 171 kts | 296° |
| 2026-05-05 18:42 | 51.33104 | -3.29743 | 2083 ft | 170 kts | 297° |
| 2026-05-05 18:42 | 51.33581 | -3.31480 | 2090 ft | 170 kts | 297° |
| 2026-05-05 18:43 | 51.34035 | -3.33197 | 2123 ft | 170 kts | 296° |
| 2026-05-05 18:43 | 51.34485 | -3.34944 | 2097 ft | 170 kts | 296° |
| 2026-05-05 18:43 | 51.34950 | -3.36676 | 2116 ft | 170 kts | 297° |
| 2026-05-05 18:43 | 51.35445 | -3.38393 | 2120 ft | 170 kts | 298° |
| 2026-05-05 18:44 | 51.35952 | -3.40080 | 2120 ft | 167 kts | 300° |
| 2026-05-05 18:44 | 51.36440 | -3.41755 | 2091 ft | 165 kts | 297° |
| 2026-05-05 18:44 | 51.36895 | -3.43442 | 2113 ft | 165 kts | 298° |
| 2026-05-05 18:44 | 51.37353 | -3.45125 | 2124 ft | 165 kts | 297° |
| 2026-05-05 18:45 | 51.37882 | -3.46702 | 2105 ft | 162 kts | 314° |
| 2026-05-05 18:45 | 51.38805 | -3.47620 | 2026 ft | 156 kts | 349° |
| 2026-05-05 18:45 | 51.39832 | -3.47433 | 2022 ft | 148 kts | 25° |
| 2026-05-05 18:45 | 51.40549 | -3.46311 | 1984 ft | 146 kts | 61° |
| 2026-05-05 18:46 | 51.40754 | -3.44676 | 1813 ft | 156 kts | 83° |
| 2026-05-05 18:46 | 51.40861 | -3.42922 | 1581 ft | 160 kts | 79° |
| 2026-05-05 18:46 | 51.41001 | -3.41151 | 1325 ft | 162 kts | 80° |
| 2026-05-05 18:46 | 51.41003 | -3.39373 | 962 ft | 157 kts | 94° |
| 2026-05-05 18:47 | 51.40745 | -3.37730 | 682 ft | 146 kts | 110° |
| 2026-05-05 18:47 | 51.40291 | -3.36345 | 357 ft | 140 kts | 113° |
| 2026-05-05 18:47 | 51.39880 | -3.35042 | 224 ft | 118 kts | 111° |
| 2026-05-05 18:47 | 51.39534 | -3.33929 | 228 ft | 133 kts | 117° |
| 2026-05-05 18:48 | 51.39036 | -3.32351 | 885 ft | 174 kts | 115° |
| 2026-05-05 18:48 | 51.38405 | -3.30535 | 1911 ft | 207 kts | 116° |
| 2026-05-05 18:48 | 51.37664 | -3.28491 | 2016 ft | 205 kts | 117° |
| 2026-05-05 18:48 | 51.36967 | -3.26607 | 2011 ft | 188 kts | 117° |
| 2026-05-05 18:49 | 51.36315 | -3.24870 | 2007 ft | 178 kts | 118° |
| 2026-05-05 18:49 | 51.35672 | -3.23204 | 2003 ft | 174 kts | 120° |
| 2026-05-05 18:49 | 51.34815 | -3.21873 | 2011 ft | 178 kts | 150° |
| 2026-05-05 18:49 | 51.33608 | -3.21452 | 1976 ft | 182 kts | 184° |
| 2026-05-05 18:50 | 51.32431 | -3.22121 | 1891 ft | 181 kts | 218° |
| 2026-05-05 18:50 | 51.31671 | -3.23672 | 1785 ft | 178 kts | 252° |
| 2026-05-05 18:50 | 51.31563 | -3.25577 | 1689 ft | 171 kts | 284° |
| 2026-05-05 18:50 | 51.31907 | -3.27375 | 1679 ft | 169 kts | 296° |
| 2026-05-05 18:51 | 51.32362 | -3.29112 | 1692 ft | 170 kts | 297° |
| 2026-05-05 18:51 | 51.32828 | -3.30848 | 1712 ft | 170 kts | 298° |
| 2026-05-05 18:51 | 51.33302 | -3.32564 | 1718 ft | 168 kts | 298° |
| 2026-05-05 18:51 | 51.33772 | -3.34252 | 1738 ft | 169 kts | 297° |
| 2026-05-05 18:52 | 51.34231 | -3.35989 | 1763 ft | 170 kts | 296° |
| 2026-05-05 18:52 | 51.34702 | -3.37727 | 1783 ft | 170 kts | 297° |
| 2026-05-05 18:52 | 51.35179 | -3.39456 | 1787 ft | 170 kts | 298° |
| 2026-05-05 18:52 | 51.35658 | -3.41174 | 1782 ft | 169 kts | 297° |
| 2026-05-05 18:53 | 51.36122 | -3.42900 | 1784 ft | 169 kts | 297° |
| 2026-05-05 18:53 | 51.36585 | -3.44622 | 1794 ft | 168 kts | 297° |
| 2026-05-05 18:53 | 51.37051 | -3.46337 | 1800 ft | 168 kts | 297° |
| 2026-05-05 18:53 | 51.37512 | -3.48023 | 1825 ft | 167 kts | 298° |
| 2026-05-05 18:54 | 51.38065 | -3.49633 | 1810 ft | 161 kts | 313° |
| 2026-05-05 18:54 | 51.38974 | -3.50618 | 1672 ft | 162 kts | 345° |
| 2026-05-05 18:54 | 51.40048 | -3.50621 | 1469 ft | 152 kts | 18° |
| 2026-05-05 18:54 | 51.40880 | -3.49643 | 1312 ft | 151 kts | 52° |
| 2026-05-05 18:55 | 51.41200 | -3.48048 | 1134 ft | 154 kts | 85° |
| 2026-05-05 18:55 | 51.41181 | -3.46367 | 1080 ft | 145 kts | 83° |
| 2026-05-05 18:55 | 51.41224 | -3.44758 | 1030 ft | 150 kts | 85° |
| 2026-05-05 18:55 | 51.41239 | -3.43077 | 867 ft | 149 kts | 86° |
| 2026-05-05 18:56 | 51.41216 | -3.41440 | 707 ft | 149 kts | 90° |
| 2026-05-05 18:56 | 51.41145 | -3.39822 | 568 ft | 142 kts | 95° |
| 2026-05-05 18:56 | 51.40910 | -3.38328 | 480 ft | 139 kts | 108° |
| 2026-05-05 18:56 | 51.40474 | -3.36910 | 364 ft | 145 kts | 115° |
| 2026-05-05 18:57 | 51.40020 | -3.35480 | 259 ft | 143 kts | 113° |
| 2026-05-05 18:57 | 51.39605 | -3.34155 | 224 ft | 118 kts | 115° |
| 2026-05-05 18:57 | 51.39289 | -3.33146 | 227 ft | 76 kts | 116° |
| 2026-05-05 18:57 | 51.39197 | -3.32885 | 225 ft | 11 kts | 135° |
| 2026-05-05 18:58 | 51.39207 | -3.32829 | 225 ft | 5 kts | 32° |
| 2026-05-05 18:58 | 51.39252 | -3.32800 | 227 ft | 8 kts | 356° |
| 2026-05-05 18:58 | 51.39292 | -3.32838 | 228 ft | 6 kts | 316° |
| 2026-05-05 18:58 | 51.39321 | -3.32884 | 229 ft | 6 kts | 315° |
| 2026-05-05 18:59 | 51.39349 | -3.32928 | 229 ft | 6 kts | 315° |
| 2026-05-05 18:59 | 51.39377 | -3.32972 | 229 ft | 6 kts | 316° |
| 2026-05-05 18:59 | 51.39406 | -3.33018 | 229 ft | 6 kts | 315° |
| 2026-05-05 18:59 | 51.39435 | -3.33067 | 229 ft | 6 kts | 311° |
| 2026-05-05 19:00 | 51.39461 | -3.33122 | 229 ft | 6 kts | 302° |
| 2026-05-05 19:00 | 51.39483 | -3.33187 | 230 ft | 7 kts | 298° |
| 2026-05-05 19:00 | 51.39506 | -3.33256 | 229 ft | 7 kts | 296° |
| 2026-05-05 19:00 | 51.39529 | -3.33331 | 230 ft | 8 kts | 297° |
| 2026-05-05 19:01 | 51.39554 | -3.33408 | 229 ft | 8 kts | 297° |
| 2026-05-05 19:01 | 51.39579 | -3.33491 | 231 ft | 8 kts | 295° |
| 2026-05-05 19:01 | 51.39606 | -3.33574 | 229 ft | 8 kts | 299° |
| 2026-05-05 19:01 | 51.39642 | -3.33586 | 229 ft | 6 kts | 12° |
| 2026-05-05 19:02 | 51.39688 | -3.33553 | 229 ft | 9 kts | 26° |
| 2026-05-05 19:02 | 51.39692 | -3.33549 | 229 ft | 0 kts | 26° |